Time;durP1;ratioP1;P1;durP2;ratioP2;P2;SDS_P1;SDS_P2;PMS_P1;PMS_P2;Temp;Humidity;BMP_temperature;BMP_pressure;BME280_temperature;BME280_humidity;BME280_pressure;Samples;Min_cycle;Max_cycle;Signal;HPM_P1;HPM_P2
2021/05/12 00:01:42;;;;;;;1.90;0.95;;;19.30;66.30;;;;;;4956972;29;20082;-62
2021/05/12 00:04:08;;;;;;;2.15;0.75;;;19.90;66.70;;;;;;4956824;29;20043;-62
2021/05/12 00:06:33;;;;;;;2.83;1.02;;;19.30;66.40;;;;;;4956844;29;20035;-62
2021/05/12 00:08:59;;;;;;;1.75;0.90;;;19.10;66.20;;;;;;4956849;29;20027;-62
2021/05/12 00:11:25;;;;;;;3.92;0.80;;;19.10;66.20;;;;;;4956806;29;20082;-62
2021/05/12 00:13:51;;;;;;;2.10;0.90;;;19.00;66.10;;;;;;4956774;29;20023;-62
2021/05/12 00:16:17;;;;;;;1.83;0.90;;;19.30;66.20;;;;;;4939566;28;20036;-60
2021/05/12 00:18:45;;;;;;;1.65;0.80;;;19.40;66.70;;;;;;4956457;29;20065;-64
2021/05/12 00:21:15;;;;;;;1.83;0.60;;;19.10;66.10;;;;;;4956892;29;20032;-64
2021/05/12 00:23:44;;;;;;;;;;;19.10;66.20;;;;;;4957399;29;20078;-64
2021/05/12 00:26:10;;;;;;;1.75;0.70;;;19.20;66.20;;;;;;4956671;28;19907;-65
2021/05/12 00:28:35;;;;;;;2.55;0.88;;;19.10;66.20;;;;;;4956514;29;20027;-62
2021/05/12 00:31:01;;;;;;;0.70;0.50;;;19.20;66.30;;;;;;4955172;29;20094;-64
2021/05/12 00:33:27;;;;;;;0.85;0.50;;;19.10;66.20;;;;;;4956673;29;20060;-64
2021/05/12 00:35:52;;;;;;;1.35;0.75;;;19.00;66.10;;;;;;4956272;29;20193;-64
2021/05/12 00:38:18;;;;;;;3.13;1.25;;;19.20;66.20;;;;;;4956363;29;20028;-64
2021/05/12 00:40:43;;;;;;;1.75;0.80;;;19.00;66.00;;;;;;4955117;29;20023;-64
2021/05/12 00:43:09;;;;;;;2.03;0.85;;;19.30;66.30;;;;;;4956240;29;20489;-64
2021/05/12 00:45:35;;;;;;;2.10;0.63;;;19.00;66.10;;;;;;4956249;29;20062;-64
2021/05/12 00:48:00;;;;;;;1.23;0.80;;;19.10;66.10;;;;;;4956121;29;20023;-64
2021/05/12 00:50:29;;;;;;;0.88;0.65;;;19.20;66.20;;;;;;4956161;29;20019;-64
2021/05/12 00:52:54;;;;;;;1.42;0.47;;;19.10;91.20;;;;;;4956019;29;20138;-64
2021/05/12 00:55:20;;;;;;;2.00;0.50;;;18.90;66.00;;;;;;4956039;29;20457;-64
2021/05/12 00:57:46;;;;;;;1.45;0.73;;;19.80;66.40;;;;;;4956033;29;20488;-64
2021/05/12 01:00:16;;;;;;;1.08;0.50;;;19.80;66.40;;;;;;4956229;29;20428;-64
2021/05/12 01:02:42;;;;;;;2.03;0.80;;;19.10;66.00;;;;;;4955877;29;20435;-65
2021/05/12 01:05:48;;;;;;;1.45;0.60;;;19.00;65.90;;;;;;4955781;29;20051;-64
2021/05/12 01:08:14;;;;;;;2.80;0.70;;;19.10;65.60;;;;;;4942805;29;20391;-63
2021/05/12 01:10:40;;;;;;;1.88;0.65;;;18.90;65.80;;;;;;4955988;29;20069;-64
2021/05/12 01:13:06;;;;;;;0.85;0.50;;;19.00;66.10;;;;;;4955736;29;20037;-64
2021/05/12 01:15:31;;;;;;;0.68;0.63;;;18.90;65.90;;;;;;4955585;29;20023;-64
2021/05/12 01:18:21;;;;;;;1.77;0.65;;;20.10;66.60;;;;;;4938339;29;20463;-64
2021/05/12 01:20:55;;;;;;;0.87;0.50;;;19.10;66.00;;;;;;4955572;29;20495;-63
2021/05/12 01:23:23;;;;;;;1.60;0.47;;;19.00;65.70;;;;;;4955562;29;20106;-63
2021/05/12 01:25:50;;;;;;;2.10;0.55;;;19.40;66.20;;;;;;4955727;29;20021;-63
2021/05/12 01:28:17;;;;;;;2.25;0.60;;;19.60;66.40;;;;;;4955058;28;20032;-64
2021/05/12 01:30:57;;;;;;;0.77;0.70;;;18.90;65.80;;;;;;4955004;29;20038;-64
2021/05/12 01:33:23;;;;;;;1.00;0.75;;;19.00;65.60;;;;;;4955467;29;20027;-64
2021/05/12 01:35:48;;;;;;;1.15;0.68;;;18.90;65.80;;;;;;4955252;29;20030;-64
2021/05/12 01:38:15;;;;;;;3.38;0.80;;;18.90;65.90;;;;;;4955231;29;20041;-64
2021/05/12 01:40:41;;;;;;;1.33;0.75;;;18.80;65.80;;;;;;4955537;29;20090;-64
2021/05/12 01:43:07;;;;;;;1.20;0.90;;;18.80;65.80;;;;;;4955413;29;20035;-64
2021/05/12 01:45:33;;;;;;;1.83;0.60;;;18.90;67.20;;;;;;4937983;29;20019;-63
2021/05/12 01:47:59;;;;;;;1.45;0.77;;;19.20;66.00;;;;;;4955055;29;20028;-64
2021/05/12 01:50:25;;;;;;;1.13;0.50;;;19.00;65.80;;;;;;4955049;29;20107;-64
2021/05/12 01:52:50;;;;;;;0.85;0.60;;;19.00;91.10;;;;;;4954957;29;20035;-64
2021/05/12 01:55:16;;;;;;;2.20;0.77;;;18.80;65.80;;;;;;4954985;29;20030;-64
2021/05/12 01:57:43;;;;;;;2.22;0.68;;;18.80;66.40;;;;;;4954894;29;20106;-64
2021/05/12 02:00:32;;;;;;;1.17;0.50;;;18.80;65.70;;;;;;4954947;29;20027;-64
2021/05/12 02:02:58;;;;;;;3.33;0.70;;;18.90;65.60;;;;;;4954697;29;20035;-64
2021/05/12 02:05:26;;;;;;;0.80;0.57;;;18.80;65.80;;;;;;4955107;29;20038;-65
2021/05/12 02:07:53;;;;;;;1.73;0.70;;;18.90;91.20;;;;;;4954760;29;20539;-64
2021/05/12 02:10:19;;;;;;;2.42;1.00;;;19.00;65.80;;;;;;4954798;29;20361;-64
2021/05/12 02:12:45;;;;;;;1.33;0.65;;;19.70;66.10;;;;;;4937520;29;20030;-64
2021/05/12 02:15:11;;;;;;;2.08;1.00;;;18.80;65.70;;;;;;4937565;29;20019;-64
2021/05/12 02:17:38;;;;;;;0.80;0.63;;;18.90;65.60;;;;;;4954573;29;20460;-64
2021/05/12 02:20:07;;;;;;;1.48;0.50;;;19.00;65.90;;;;;;4954616;29;20086;-64
2021/05/12 02:22:33;;;;;;;0.85;0.65;;;18.90;65.60;;;;;;4937344;29;20023;-64
2021/05/12 02:24:59;;;;;;;2.38;0.95;;;18.80;65.60;;;;;;4954560;29;20520;-64
2021/05/12 02:27:24;;;;;;;2.35;0.98;;;18.70;65.60;;;;;;4954534;29;20062;-64
2021/05/12 02:29:50;;;;;;;0.80;0.60;;;18.60;65.50;;;;;;4954756;29;20105;-64
2021/05/12 02:32:16;;;;;;;1.77;0.70;;;18.70;65.60;;;;;;4954744;29;20102;-64
2021/05/12 02:34:41;;;;;;;1.25;0.50;;;18.90;65.80;;;;;;4954738;29;20027;-64
2021/05/12 02:37:07;;;;;;;1.35;0.68;;;18.90;65.70;;;;;;4954370;29;20113;-64
2021/05/12 02:39:32;;;;;;;1.50;0.73;;;18.70;65.60;;;;;;4954603;28;20027;-64
2021/05/12 02:41:58;;;;;;;2.55;0.88;;;18.90;65.70;;;;;;4960886;28;20618;-64
2021/05/12 02:44:24;;;;;;;2.05;0.80;;;19.10;65.70;;;;;;4961017;29;20057;-64
2021/05/12 02:46:50;;;;;;;0.88;0.60;;;19.60;65.90;;;;;;4961066;28;20027;-64
2021/05/12 02:49:15;;;;;;;1.45;0.80;;;18.60;65.50;;;;;;4960816;28;20023;-63
2021/05/12 02:51:41;;;;;;;1.65;1.00;;;19.00;66.40;;;;;;4961034;29;20027;-65
2021/05/12 02:54:07;;;;;;;2.97;0.70;;;18.70;65.50;;;;;;4960683;29;20246;-65
2021/05/12 02:56:33;;;;;;;1.48;0.68;;;18.80;65.60;;;;;;4960699;28;20031;-65
2021/05/12 02:58:59;;;;;;;1.35;0.65;;;18.70;65.60;;;;;;4960932;29;20051;-65
2021/05/12 03:01:24;;;;;;;1.42;0.90;;;18.90;65.60;;;;;;4960670;29;20535;-65
2021/05/12 03:03:50;;;;;;;3.05;0.80;;;18.90;65.60;;;;;;4960491;29;20043;-64
2021/05/12 03:06:16;;;;;;;1.33;0.75;;;18.60;65.50;;;;;;4959369;28;20026;-64
2021/05/12 03:08:42;;;;;;;1.65;0.80;;;18.60;65.40;;;;;;4960878;28;20480;-64
2021/05/12 03:11:07;;;;;;;0.68;0.60;;;18.90;65.50;;;;;;4960578;29;20037;-64
2021/05/12 03:13:34;;;;;;;1.67;0.60;;;18.70;65.40;;;;;;4960591;29;20027;-65
2021/05/12 03:15:59;;;;;;;1.25;0.85;;;18.60;65.30;;;;;;4960495;29;20428;-65
2021/05/12 03:18:26;;;;;;;1.98;0.93;;;18.70;65.50;;;;;;4960537;29;20023;-65
2021/05/12 03:20:52;;;;;;;1.02;0.80;;;18.50;65.30;;;;;;4960558;28;20110;-65
2021/05/12 03:23:18;;;;;;;0.73;0.63;;;18.60;65.40;;;;;;4960729;28;20397;-64
2021/05/12 03:25:43;;;;;;;1.48;0.90;;;18.80;65.50;;;;;;4960465;28;20019;-64
2021/05/12 03:28:09;;;;;;;0.98;0.80;;;18.60;65.50;;;;;;4960647;29;20046;-64
2021/05/12 03:30:37;;;;;;;1.00;0.82;;;18.70;65.50;;;;;;4960307;29;20023;-64
2021/05/12 03:33:05;;;;;;;1.05;0.68;;;18.80;65.60;;;;;;4960626;29;20034;-64
2021/05/12 03:35:31;;;;;;;2.50;1.00;;;18.70;65.50;;;;;;4960210;29;20756;-64
2021/05/12 03:37:57;;;;;;;1.13;0.77;;;18.50;65.30;;;;;;4960583;28;20035;-64
2021/05/12 03:40:24;;;;;;;1.67;0.75;;;18.50;65.30;;;;;;4960330;29;20030;-65
2021/05/12 03:42:50;;;;;;;1.20;0.85;;;18.70;65.40;;;;;;4943059;29;20034;-64
2021/05/12 03:45:16;;;;;;;2.58;1.00;;;18.50;65.40;;;;;;4960263;28;20024;-64
2021/05/12 03:47:42;;;;;;;2.67;1.25;;;18.50;65.30;;;;;;4960513;28;20409;-65
2021/05/12 03:50:09;;;;;;;1.10;0.73;;;18.60;65.40;;;;;;4960252;29;20031;-64
2021/05/12 03:52:35;;;;;;;1.52;1.00;;;18.80;91.10;;;;;;4957128;28;20027;-64
2021/05/12 03:55:01;;;;;;;0.70;0.70;;;18.50;65.30;;;;;;4939856;29;20024;-64
2021/05/12 03:57:26;;;;;;;1.77;0.90;;;19.20;65.70;;;;;;4957301;29;20035;-64
2021/05/12 03:59:52;;;;;;;1.20;0.88;;;18.60;65.40;;;;;;4957034;29;20038;-64
2021/05/12 04:02:17;;;;;;;3.47;1.10;;;18.60;65.40;;;;;;4957036;29;20110;-64
2021/05/12 04:04:43;;;;;;;2.17;1.08;;;19.00;65.50;;;;;;4956797;29;20055;-65
2021/05/12 04:07:09;;;;;;;1.35;0.77;;;19.30;65.80;;;;;;4957009;29;20448;-64
2021/05/12 04:09:34;;;;;;;1.45;1.00;;;18.80;65.60;;;;;;4956954;29;20023;-63
2021/05/12 04:12:00;;;;;;;1.38;0.75;;;18.50;65.40;;;;;;4956834;29;20075;-65
2021/05/12 04:14:26;;;;;;;1.98;1.00;;;18.60;65.40;;;;;;4956843;29;20416;-64
2021/05/12 04:16:52;;;;;;;1.90;0.95;;;18.50;65.30;;;;;;4956739;29;20046;-65
2021/05/12 04:19:19;;;;;;;1.05;0.77;;;18.50;65.30;;;;;;4956955;29;20023;-65
2021/05/12 04:21:44;;;;;;;2.67;1.10;;;18.50;65.40;;;;;;4956721;29;20452;-64
2021/05/12 04:24:10;;;;;;;1.73;1.10;;;18.50;65.30;;;;;;4956833;29;20023;-64
2021/05/12 04:26:36;;;;;;;3.80;1.08;;;18.50;65.40;;;;;;4956647;29;20453;-64
2021/05/12 04:29:05;;;;;;;1.65;0.90;;;18.60;91.00;;;;;;4956690;29;20027;-63
2021/05/12 04:31:32;;;;;;;1.60;0.83;;;18.30;65.00;;;;;;4956495;29;20107;-64
2021/05/12 04:33:58;;;;;;;2.67;1.05;;;18.40;65.30;;;;;;4956795;29;20058;-64
2021/05/12 04:36:23;;;;;;;2.85;1.15;;;18.40;65.60;;;;;;4956325;29;20055;-65
2021/05/12 04:38:49;;;;;;;2.25;1.13;;;18.60;65.40;;;;;;4956627;29;20078;-64
2021/05/12 04:41:16;;;;;;;1.80;1.05;;;18.60;65.40;;;;;;4956350;29;20465;-64
2021/05/12 04:43:42;;;;;;;2.13;1.05;;;18.40;65.30;;;;;;4956333;29;20035;-64
2021/05/12 04:46:08;;;;;;;2.30;0.80;;;19.30;65.80;;;;;;4956473;29;20027;-64
2021/05/12 04:48:33;;;;;;;1.05;0.70;;;18.40;65.40;;;;;;4956372;29;20027;-64
2021/05/12 04:50:59;;;;;;;2.05;1.08;;;18.60;65.50;;;;;;4956129;29;20106;-64
2021/05/12 04:53:25;;;;;;;2.70;1.00;;;18.70;65.40;;;;;;4956302;29;20027;-65
2021/05/12 04:55:50;;;;;;;1.65;0.80;;;18.40;65.80;;;;;;4954856;29;20033;-64
2021/05/12 04:58:16;;;;;;;0.77;0.75;;;19.20;65.50;;;;;;4956058;29;20034;-64
2021/05/12 05:00:41;;;;;;;2.83;1.00;;;18.50;65.30;;;;;;4956271;29;20380;-64
2021/05/12 05:03:07;;;;;;;1.30;0.88;;;18.50;65.40;;;;;;4955545;28;20034;-64
2021/05/12 05:05:33;;;;;;;1.75;0.95;;;18.40;65.20;;;;;;4955934;29;20106;-64
2021/05/12 05:07:59;;;;;;;1.98;0.88;;;18.40;65.20;;;;;;4955879;29;20558;-64
2021/05/12 05:10:24;;;;;;;2.00;1.23;;;18.90;65.40;;;;;;4956087;29;20034;-64
2021/05/12 05:12:50;;;;;;;2.00;0.60;;;18.50;65.30;;;;;;4955732;29;20019;-61
2021/05/12 05:15:16;;;;;;;2.03;0.70;;;18.50;65.10;;;;;;4955698;29;20028;-64
2021/05/12 05:17:42;;;;;;;2.72;0.73;;;18.30;64.80;;;;;;4938394;29;20433;-64
2021/05/12 05:20:11;;;;;;;2.20;1.08;;;18.80;65.00;;;;;;4938335;29;20188;-64
2021/05/12 05:22:36;;;;;;;2.78;1.10;;;18.50;64.80;;;;;;4938523;29;20081;-64
2021/05/12 05:25:03;;;;;;;1.85;0.65;;;18.40;64.80;;;;;;4955549;29;20047;-63
2021/05/12 05:27:28;;;;;;;2.78;0.88;;;18.50;64.80;;;;;;4955499;29;20023;-63
2021/05/12 05:29:54;;;;;;;3.10;1.00;;;18.30;64.90;;;;;;4955535;29;20515;-63
2021/05/12 05:32:20;;;;;;;1.95;0.63;;;18.30;65.00;;;;;;4955669;29;20036;-64
2021/05/12 05:34:45;;;;;;;1.10;0.70;;;18.50;65.10;;;;;;4955418;29;20047;-63
2021/05/12 05:37:11;;;;;;;1.08;0.70;;;18.30;65.00;;;;;;4938132;29;20507;-63
2021/05/12 05:39:36;;;;;;;1.00;0.73;;;18.30;65.10;;;;;;4955252;29;20540;-63
2021/05/12 05:42:06;;;;;;;1.90;0.80;;;18.40;65.20;;;;;;4955531;29;20523;-64
2021/05/12 05:44:32;;;;;;;2.50;0.90;;;18.50;65.20;;;;;;4955399;29;20026;-64
2021/05/12 05:46:58;;;;;;;2.20;0.93;;;18.60;65.30;;;;;;4955013;29;20503;-64
2021/05/12 05:49:24;;;;;;;2.17;0.90;;;18.40;65.00;;;;;;4955131;29;20019;-63
2021/05/12 05:51:51;;;;;;;1.65;0.70;;;19.20;65.30;;;;;;4955297;29;20034;-63
2021/05/12 05:54:17;;;;;;;4.68;1.20;;;18.60;64.80;;;;;;4954987;29;20611;-63
2021/05/12 05:56:42;;;;;;;3.97;0.80;;;18.30;64.50;;;;;;4954958;29;20496;-64
2021/05/12 05:59:08;;;;;;;3.22;1.25;;;18.40;64.90;;;;;;4955019;29;20027;-64
2021/05/12 06:01:33;;;;;;;4.05;0.95;;;18.40;64.80;;;;;;4954898;29;20023;-63
2021/05/12 06:03:59;;;;;;;2.10;0.75;;;18.40;64.80;;;;;;4954670;29;20074;-64
2021/05/12 06:06:25;;;;;;;6.35;0.98;;;18.40;65.00;;;;;;4955155;29;20054;-63
2021/05/12 06:08:50;;;;;;;3.85;0.90;;;18.40;65.60;;;;;;4954912;29;20119;-64
2021/05/12 06:11:16;;;;;;;1.95;0.73;;;18.40;65.50;;;;;;4954773;29;20019;-64
2021/05/12 06:13:41;;;;;;;2.25;0.68;;;18.60;65.60;;;;;;4954770;29;20373;-64
2021/05/12 06:16:07;;;;;;;3.05;1.05;;;18.40;65.20;;;;;;4953235;28;20491;-64
2021/05/12 06:18:32;;;;;;;4.88;0.98;;;18.50;65.10;;;;;;4954848;29;20015;-64
2021/05/12 06:20:58;;;;;;;2.35;0.80;;;18.50;64.90;;;;;;4954735;29;20531;-63
2021/05/12 06:23:24;;;;;;;2.33;0.63;;;18.60;65.00;;;;;;4955003;29;20114;-63
2021/05/12 06:25:52;;;;;;;3.85;0.70;;;18.50;65.00;;;;;;4954691;29;20023;-64
2021/05/12 06:28:19;;;;;;;3.28;0.75;;;18.60;65.00;;;;;;4954647;29;20604;-60
2021/05/12 06:30:49;;;;;;;3.60;0.75;;;18.40;64.90;;;;;;4954717;29;20110;-61
2021/05/12 06:33:16;;;;;;;4.20;0.75;;;18.50;64.80;;;;;;4937360;29;20031;-60
2021/05/12 06:35:41;;;;;;;5.88;0.88;;;18.60;65.10;;;;;;4954494;29;20031;-62
2021/05/12 06:38:07;;;;;;;3.20;0.75;;;18.50;65.30;;;;;;4954432;29;20031;-61
2021/05/12 06:40:33;;;;;;;2.25;0.95;;;18.80;65.80;;;;;;4954770;29;20055;-61
2021/05/12 06:43:01;;;;;;;3.38;0.90;;;18.70;65.70;;;;;;4954821;29;20027;-61
2021/05/12 06:45:27;;;;;;;3.17;0.90;;;18.60;65.40;;;;;;4954723;29;20047;-61
2021/05/12 06:47:55;;;;;;;9.15;1.20;;;18.70;65.30;;;;;;4954489;29;20541;-61
2021/05/12 06:50:23;;;;;;;2.45;1.02;;;18.50;64.60;;;;;;4954422;29;20411;-61
2021/05/12 06:52:55;;;;;;;7.30;1.00;;;18.70;64.80;;;;;;4954352;29;20031;-61
2021/05/12 06:55:22;;;;;;;3.40;0.80;;;18.70;64.70;;;;;;4937140;29;20497;-61
2021/05/12 06:57:47;;;;;;;3.65;1.13;;;18.70;64.60;;;;;;4937083;29;20035;-61
2021/05/12 07:00:14;;;;;;;4.30;0.90;;;19.00;64.60;;;;;;4954589;29;20494;-60
2021/05/12 07:02:40;;;;;;;3.13;0.77;;;18.80;64.30;;;;;;4937184;29;20023;-61
2021/05/12 07:05:06;;;;;;;3.78;0.70;;;18.60;64.20;;;;;;4936920;29;20055;-61
2021/05/12 07:07:32;;;;;;;3.53;0.77;;;18.80;64.30;;;;;;4954223;29;20090;-61
2021/05/12 07:09:57;;;;;;;2.58;1.30;;;18.60;64.20;;;;;;4954481;29;20027;-61
2021/05/12 07:12:24;;;;;;;4.43;0.75;;;18.70;64.30;;;;;;4954234;29;20110;-61
2021/05/12 07:14:49;;;;;;;3.75;1.05;;;19.00;64.40;;;;;;4954277;29;20082;-61
2021/05/12 07:17:15;;;;;;;5.15;1.30;;;18.90;64.50;;;;;;4954149;29;20480;-61
2021/05/12 07:19:40;;;;;;;2.75;1.17;;;18.70;64.20;;;;;;4936901;29;20102;-61
2021/05/12 07:22:06;;;;;;;3.40;0.90;;;18.70;64.20;;;;;;4954199;29;20075;-61
2021/05/12 07:24:32;;;;;;;3.10;1.00;;;19.00;64.40;;;;;;4954166;29;20046;-61
2021/05/12 07:26:57;;;;;;;2.40;0.80;;;18.80;64.10;;;;;;4953551;28;20031;-61
2021/05/12 07:29:23;;;;;;;3.00;0.80;;;18.80;64.00;;;;;;4940606;29;20373;-61
2021/05/12 07:31:49;;;;;;;2.95;0.77;;;18.80;63.90;;;;;;4956535;29;20036;-61
2021/05/12 07:34:14;;;;;;;5.43;1.30;;;19.70;64.40;;;;;;4957672;29;20039;-61
2021/05/12 07:36:40;;;;;;;4.32;1.20;;;18.90;63.80;;;;;;4957831;29;20085;-61
2021/05/12 07:39:07;;;;;;;4.57;1.00;;;19.00;63.80;;;;;;4957553;29;20023;-61
2021/05/12 07:41:36;;;;;;;4.50;1.13;;;19.00;63.70;;;;;;4940345;29;20494;-61
2021/05/12 07:44:03;;;;;;;3.08;1.27;;;19.10;64.00;;;;;;4957564;29;20031;-63
2021/05/12 07:46:29;;;;;;;3.13;0.90;;;19.10;63.80;;;;;;4957744;29;20054;-62
2021/05/12 07:48:55;;;;;;;4.72;0.55;;;19.30;63.90;;;;;;4940312;29;20493;-61
2021/05/12 07:51:22;;;;;;;2.03;1.05;;;19.10;90.50;;;;;;4957433;29;20102;-61
2021/05/12 07:53:47;;;;;;;4.55;1.10;;;19.20;63.80;;;;;;4957700;29;20126;-61
2021/05/12 07:56:13;;;;;;;4.68;0.80;;;19.30;63.90;;;;;;4957572;29;20126;-61
2021/05/12 07:58:39;;;;;;;1.63;0.90;;;19.40;63.90;;;;;;4957604;29;20556;-61
2021/05/12 08:01:17;;;;;;;2.95;1.10;;;19.20;63.70;;;;;;4957366;29;20063;-61
2021/05/12 08:03:43;;;;;;;3.53;0.70;;;19.20;63.60;;;;;;4957043;29;20047;-62
2021/05/12 08:06:09;;;;;;;2.80;1.05;;;19.30;63.60;;;;;;4957046;29;20070;-62
2021/05/12 08:08:35;;;;;;;4.05;1.00;;;19.90;63.90;;;;;;4957167;29;20139;-63
2021/05/12 08:11:00;;;;;;;2.42;0.80;;;19.60;63.50;;;;;;4957100;29;20469;-62
2021/05/12 08:13:26;;;;;;;3.65;0.68;;;19.30;63.50;;;;;;4956918;29;20027;-62
2021/05/12 08:15:52;;;;;;;2.88;0.82;;;19.40;63.40;;;;;;4956963;29;20027;-63
2021/05/12 08:18:18;;;;;;;4.15;1.30;;;19.70;63.60;;;;;;4957150;29;20039;-63
2021/05/12 08:20:43;;;;;;;4.60;1.08;;;19.40;63.50;;;;;;4956870;29;20385;-62
2021/05/12 08:23:09;;;;;;;3.95;0.82;;;19.30;63.40;;;;;;4956659;29;20082;-62
2021/05/12 08:25:34;;;;;;;1.92;1.02;;;20.10;63.70;;;;;;4939469;29;20106;-65
2021/05/12 08:28:00;;;;;;;2.08;1.00;;;19.30;63.20;;;;;;4956913;29;20027;-65
2021/05/12 08:30:28;;;;;;;3.28;0.75;;;19.40;63.10;;;;;;4956628;29;20547;-65
2021/05/12 08:32:57;;;;;;;1.70;0.65;;;19.60;63.10;;;;;;4956882;29;20397;-65
2021/05/12 08:35:22;;;;;;;3.40;0.80;;;19.50;63.10;;;;;;4956512;29;20082;-65
2021/05/12 08:37:51;;;;;;;1.95;0.43;;;19.60;63.20;;;;;;4956127;28;20035;-65
2021/05/12 08:40:19;;;;;;;2.95;0.95;;;19.60;63.20;;;;;;4956495;29;20061;-65
2021/05/12 08:42:45;;;;;;;1.83;0.70;;;19.50;63.10;;;;;;4939173;29;20445;-65
2021/05/12 08:45:12;;;;;;;1.83;0.80;;;20.10;63.30;;;;;;4956354;29;20051;-65
2021/05/12 08:47:38;;;;;;;1.25;0.65;;;19.70;63.00;;;;;;4956305;29;20038;-65
2021/05/12 08:50:04;;;;;;;3.20;0.90;;;19.70;62.80;;;;;;4956310;29;20098;-65
2021/05/12 08:52:31;;;;;;;1.95;1.00;;;19.80;62.70;;;;;;4956076;29;20069;-61
2021/05/12 08:54:57;;;;;;;3.38;0.90;;;20.20;62.90;;;;;;4956132;29;20023;-61
2021/05/12 08:57:23;;;;;;;2.53;0.82;;;19.90;62.60;;;;;;4939002;29;20074;-62
2021/05/12 08:59:51;;;;;;;2.13;0.68;;;19.90;62.40;;;;;;4956307;29;20024;-62
2021/05/12 09:02:17;;;;;;;1.45;0.65;;;20.00;62.30;;;;;;4955992;29;20492;-63
2021/05/12 09:04:43;;;;;;;1.83;0.80;;;19.90;62.10;;;;;;4955759;29;20118;-62
2021/05/12 09:07:09;;;;;;;3.65;1.10;;;20.00;62.20;;;;;;4956190;29;20118;-62
2021/05/12 09:09:35;;;;;;;3.58;0.70;;;20.10;61.90;;;;;;4955922;29;20077;-62
2021/05/12 09:12:01;;;;;;;5.13;0.80;;;20.10;61.80;;;;;;4955722;29;20051;-62
2021/05/12 09:14:29;;;;;;;1.13;0.45;;;20.10;61.70;;;;;;4955734;29;20053;-62
2021/05/12 09:16:55;;;;;;;2.85;1.17;;;20.10;61.70;;;;;;4955877;29;20031;-61
2021/05/12 09:19:24;;;;;;;1.42;0.80;;;20.30;61.60;;;;;;4955481;29;20046;-62
2021/05/12 09:21:52;;;;;;;1.83;0.65;;;20.40;61.60;;;;;;4938440;29;20039;-62
2021/05/12 09:24:37;;;;;;;2.95;0.98;;;20.40;61.40;;;;;;4955853;29;20023;-62
2021/05/12 09:27:03;;;;;;;1.60;0.70;;;20.40;61.40;;;;;;4938329;29;20023;-62
2021/05/12 09:29:31;;;;;;;2.00;0.55;;;20.40;61.40;;;;;;4938376;29;20046;-63
2021/05/12 09:32:06;;;;;;;1.52;0.70;;;20.30;61.30;;;;;;4955416;29;20396;-62
2021/05/12 09:34:56;;;;;;;2.78;0.98;;;20.40;61.10;;;;;;4955653;29;20106;-62
2021/05/12 09:37:30;;;;;;;1.95;0.57;;;20.80;61.60;;;;;;4955279;29;20046;-62
2021/05/12 09:39:57;;;;;;;3.60;0.47;;;20.30;61.20;;;;;;4955535;29;20027;-62
2021/05/12 09:42:24;;;;;;;1.58;0.63;;;20.60;61.20;;;;;;4955182;29;20031;-62
2021/05/12 09:45:07;;;;;;;1.20;0.60;;;20.50;61.10;;;;;;4955102;29;20483;-62
2021/05/12 09:47:33;;;;;;;3.67;1.27;;;20.60;61.00;;;;;;4955236;29;20074;-62
2021/05/12 09:49:59;;;;;;;1.98;0.65;;;20.40;60.80;;;;;;4954409;28;20027;-61
2021/05/12 09:52:28;;;;;;;2.80;1.17;;;20.60;60.80;;;;;;4955306;29;20376;-62
2021/05/12 09:55:05;;;;;;;3.47;0.68;;;21.40;61.20;;;;;;4955229;29;20031;-61
2021/05/12 09:57:31;;;;;;;1.80;0.77;;;20.70;60.60;;;;;;4954968;29;20507;-61
2021/05/12 09:59:56;;;;;;;1.42;0.70;;;20.80;60.60;;;;;;4955232;29;20019;-61
2021/05/12 10:02:22;;;;;;;1.45;0.68;;;20.80;60.50;;;;;;4955212;29;20480;-61
2021/05/12 10:04:50;;;;;;;1.65;0.70;;;20.80;60.40;;;;;;4954775;29;20062;-61
2021/05/12 10:07:21;;;;;;;1.20;0.50;;;20.70;60.40;;;;;;4954824;29;20023;-62
2021/05/12 10:09:49;;;;;;;1.98;0.52;;;20.80;60.10;;;;;;4954907;29;20027;-62
2021/05/12 10:12:23;;;;;;;1.48;0.70;;;20.80;60.90;;;;;;4954838;29;20027;-61
2021/05/12 10:14:50;;;;;;;1.88;0.50;;;20.90;60.10;;;;;;4955066;29;20034;-61
2021/05/12 10:17:17;;;;;;;1.73;0.70;;;21.50;60.40;;;;;;4954932;29;20126;-62
2021/05/12 10:19:44;;;;;;;1.63;0.70;;;20.90;60.00;;;;;;4954632;29;20535;-62
2021/05/12 10:22:11;;;;;;;0.95;0.70;;;20.90;59.90;;;;;;4954650;29;20035;-62
2021/05/12 10:24:39;;;;;;;1.77;0.60;;;21.00;59.90;;;;;;4954971;29;20023;-61
2021/05/12 10:27:08;;;;;;;1.27;0.60;;;21.20;60.00;;;;;;4937525;29;20027;-61
2021/05/12 10:29:35;;;;;;;3.28;0.68;;;20.90;59.80;;;;;;4954452;29;20082;-62
2021/05/12 10:32:17;;;;;;;3.47;0.80;;;21.00;59.70;;;;;;4954477;29;20054;-61
2021/05/12 10:34:43;;;;;;;4.22;0.43;;;22.40;60.00;;;;;;4954541;29;20030;-62
2021/05/12 10:37:15;;;;;;;4.55;0.68;;;21.20;59.40;;;;;;4954430;29;20035;-62
2021/05/12 10:39:44;;;;;;;1.45;0.45;;;21.40;59.60;;;;;;4954464;29;20054;-62
2021/05/12 10:42:10;;;;;;;1.63;0.63;;;21.00;59.60;;;;;;4937456;29;20034;-62
2021/05/12 10:44:42;;;;;;;4.30;0.88;;;21.10;59.50;;;;;;4937276;29;20023;-62
2021/05/12 10:47:19;;;;;;;2.78;0.60;;;21.30;86.50;;;;;;4954409;29;20403;-61
2021/05/12 10:49:53;;;;;;;1.42;0.50;;;21.90;59.80;;;;;;4954426;29;20625;-61
2021/05/12 10:52:19;;;;;;;1.35;0.73;;;21.20;59.40;;;;;;4954288;29;20043;-64
2021/05/12 10:54:48;;;;;;;3.63;0.60;;;21.20;59.30;;;;;;4954518;29;20058;-61
2021/05/12 10:57:35;;;;;;;1.83;0.60;;;22.00;59.70;;;;;;4954217;29;20039;-63
2021/05/12 11:00:01;;;;;;;3.83;1.05;;;21.20;57.50;;;;;;4954223;29;20032;-63
2021/05/12 11:03:03;;;;;;;1.17;0.50;;;21.50;57.20;;;;;;4957056;28;20024;-63
2021/05/12 11:06:02;;;;;;;2.38;0.60;;;21.20;57.40;;;;;;4958078;29;20039;-63
2021/05/12 11:08:28;;;;;;;1.40;0.57;;;21.10;58.10;;;;;;4957559;28;20039;-63
2021/05/12 11:10:53;;;;;;;4.45;0.70;;;21.30;58.10;;;;;;4958262;29;20024;-62
2021/05/12 11:13:21;;;;;;;2.20;0.73;;;21.50;58.10;;;;;;4958291;29;20119;-63
2021/05/12 11:15:55;;;;;;;3.63;0.77;;;22.00;58.30;;;;;;4958042;29;20027;-63
2021/05/12 11:18:36;;;;;;;3.20;0.60;;;21.30;57.90;;;;;;4958135;29;20071;-62
2021/05/12 11:21:20;;;;;;;1.35;0.60;;;21.20;57.90;;;;;;4958115;29;20031;-63
2021/05/12 11:24:06;;;;;;;1.02;0.60;;;22.00;58.20;;;;;;4940588;29;20027;-62
2021/05/12 11:27:11;;;;;;;3.58;0.70;;;21.30;58.10;;;;;;4957558;29;20079;-62
2021/05/12 11:32:06;;;;;;;2.60;0.70;;;21.40;58.10;;;;;;4957950;29;20038;-63
2021/05/12 11:34:31;;;;;;;1.48;0.55;;;21.30;58.00;;;;;;4957517;29;20129;-63
2021/05/12 11:37:13;;;;;;;1.92;0.80;;;21.30;58.10;;;;;;4957244;29;20155;-64
2021/05/12 11:39:40;;;;;;;1.70;0.57;;;21.20;58.10;;;;;;4957570;29;20094;-64
2021/05/12 11:42:30;;;;;;;3.03;1.20;;;21.40;58.30;;;;;;4940317;29;20493;-65
2021/05/12 11:45:17;;;;;;;3.42;0.80;;;21.30;58.40;;;;;;4957727;29;20171;-65
2021/05/12 11:47:57;;;;;;;3.42;0.65;;;21.40;58.50;;;;;;4940208;29;20038;-65
2021/05/12 11:50:25;;;;;;;;;;;22.10;59.20;;;;;;4958057;29;20019;-66
2021/05/12 11:52:51;;;;;;;1.33;0.40;;;21.60;58.80;;;;;;4957598;29;19906;-66
2021/05/12 11:55:20;;;;;;;2.95;0.75;;;22.10;59.00;;;;;;4957657;29;20408;-67
2021/05/12 11:57:46;;;;;;;2.38;0.75;;;21.50;59.00;;;;;;4957445;29;20076;-68
2021/05/12 12:00:16;;;;;;;2.38;0.70;;;21.60;58.40;;;;;;4957806;29;20049;-68
2021/05/12 12:02:55;;;;;;;3.67;0.52;;;21.70;58.30;;;;;;4957756;29;20027;-68
2021/05/12 12:05:21;;;;;;;1.80;0.88;;;21.50;58.50;;;;;;4957868;29;20043;-67
2021/05/12 12:07:46;;;;;;;3.38;0.80;;;22.10;58.60;;;;;;4959387;29;20027;-67
2021/05/12 12:10:14;;;;;;;6.15;0.77;;;21.80;58.00;;;;;;4958032;29;20059;-68
2021/05/12 12:12:56;;;;;;;2.03;0.55;;;21.90;58.50;;;;;;4939328;29;20023;-67
2021/05/12 12:15:22;;;;;;;1.73;0.70;;;22.60;58.60;;;;;;4956986;29;20031;-65
2021/05/12 12:17:51;;;;;;;1.05;0.60;;;22.20;58.10;;;;;;4957310;29;20070;-65
2021/05/12 12:20:16;;;;;;;2.40;0.73;;;22.00;58.20;;;;;;4956909;29;20015;-67
2021/05/12 12:22:49;;;;;;;4.43;0.93;;;21.90;58.30;;;;;;4956900;29;20042;-66
2021/05/12 12:25:16;;;;;;;1.80;0.82;;;22.30;58.10;;;;;;4957246;29;20016;-66
2021/05/12 12:27:43;;;;;;;1.67;0.60;;;22.00;57.70;;;;;;4956694;29;20032;-67
2021/05/12 12:30:13;;;;;;;2.13;0.50;;;22.10;57.60;;;;;;4958220;29;20476;-67
2021/05/12 12:32:40;;;;;;;3.67;0.65;;;22.10;57.30;;;;;;4957760;29;20031;-65
2021/05/12 12:35:06;;;;;;;1.17;0.57;;;22.10;57.80;;;;;;4956837;29;20091;-66
2021/05/12 12:37:33;;;;;;;2.97;0.73;;;22.20;57.10;;;;;;4956383;29;20444;-67
2021/05/12 12:40:04;;;;;;;3.20;0.65;;;22.70;57.10;;;;;;4956379;29;20023;-65
2021/05/12 12:42:33;;;;;;;1.25;0.50;;;22.20;56.80;;;;;;4956798;29;20035;-66
2021/05/12 12:45:00;;;;;;;4.47;0.50;;;22.20;57.20;;;;;;4956523;29;20023;-66
2021/05/12 12:47:26;;;;;;;3.63;0.57;;;22.10;57.20;;;;;;4956638;29;20078;-67
2021/05/12 12:49:55;;;;;;;3.08;0.65;;;22.30;83.70;;;;;;4940222;29;20373;-67
2021/05/12 12:52:30;;;;;;;1.45;0.50;;;22.30;57.30;;;;;;4956216;29;20023;-66
2021/05/12 12:55:05;;;;;;;1.73;0.80;;;22.30;57.40;;;;;;4956382;29;20435;-67